North Madison, Indiana
Current Conditions -  °F | °C
As of 12:33 PM on Friday 19 Dec 2014 (Local Time) from KIMS Reporting Station
Overcast Overcast  
Wind Chill: 30°   Ceiling: 1600
Heat Index: 30°   Visibility: 10mi
Dew Point: 21°   Wind: 3mph
Humidity: 69%   Direction: 50°NE
Pressure: 30.29"   Gusts: NA
Location:  38.7969°N, 85.4186°W
Report Text: KIMS 191733Z AUTO 05003KT 10SM OVC016 M01/M06 A3029 RMK AO1
Loading
Personal Weather Stations






























Interactive Weather Map New forecast layout! Learn more

10-Day Weather Forecast

Advertisements
Track Severe Weather on mobile